AirNav   Duncan Aviation - Near you to keep you flying
 
 1019 users online  

1CO1 Mount Morrison Heliport
Morrison, Colorado, USA

GOING TO MORRISON?


FAA INFORMATION EFFECTIVE 08 SEPTEMBER 2022

Location

FAA Identifier: 1CO1
Lat/Long: 39-40-08.9550N 105-13-10.9620W
39-40.149250N 105-13.182700W
39.6691542,-105.2197117
(estimated)
Elevation: 7881 ft. / 2402 m (estimated)
Variation: 12E (1985)
From city: 2 miles NW of MORRISON, CO
Time zone: UTC -6 (UTC -7 during Standard Time)
Zip code: 80401

Heliport Operations

Heliport use: Private use. Permission required prior to landing
Activation date: 07/1970
Control tower: no
ARTCC: DENVER CENTER
FSS: DENVER FLIGHT SERVICE STATION
Attendance: UNATNDD
Wind indicator: yes
Segmented circle: no

Heliport Communications

WX AWOS-3 at BJC (15 nm N): PHONE 720-887-8067
WX ASOS at APA (18 nm E): PHONE 720-873-2799

Nearby radio navigation aids

VOR radial/distance  VOR name  Freq  Var
BJCr183/15.1JEFFCO VOR/DME115.4011E
DENr244/27.2DENVER VOR/DME117.9008E
FQFr256/27.7FALCON VORTAC116.3011E
DVVr236/30.6MILE HIGH VORTAC114.7008E

Heliport Services

Airframe service: NONE
Powerplant service: NONE

Runway Information

Helipad H1

Dimensions: 20 x 20 ft. / 6 x 6 m
Surface: concrete
Latitude: 39-40.149333N
Longitude: 105-13.182667W
Elevation: 7881.0 ft.
Traffic pattern: leftleft

Heliport Ownership and Management from official FAA records

Ownership: Publicly-owned
Owner: DENVER POLICE DEPT
SPECIAL OPERATIONS DIV, 1331 CHEROKEE ST
DENVER, CO 80204
Phone (720) 913-6022
Manager: PATRICK PHELAN
SPECIAL OPERATIONS DIV, 1331 CHEROKEE ST
DENVER, CO 80220
Phone (720) 913-6022

Additional Remarks

A52-H1 TWR & CABLES 200 FT S OF PAD,LGTD & MKD.
A31-1 TOTAL AREA IS MTN TOP 600 X 60 N TO S.
FOR CD CTC DENVER APCH AT 303-342-1916.

Instrument Procedures

There are no published instrument procedures at 1CO1.

Some nearby airports with instrument procedures:

KBJC - Rocky Mountain Metro Airport (15 nm N)
KAPA - Centennial Airport (18 nm E)
KBKF - Buckley Space Force Base (22 nm E)
KEIK - Erie Municipal Airport (22 nm N)
KDEN - Denver International Airport (28 nm NE)
 
Loc | Ops | Rwys | IFR | FBO | Links
Com | Nav | Svcs | Stats | Notes

AirBoss

 
Area around 1CO1 (Mount Morrison Heliport)
 
Road maps at: MapQuest Bing Google
 
Aerial photo
No photo
 
Sectional chart

 
Airport distance calculator
Flying to Mount Morrison Heliport? Find the distance to fly.

From to 1CO1

Sunrise and sunset
Times for 24-Sep-2022
 Local
(UTC-6)
 Zulu
(UTC)
Morning civil twilight06:2512:25
Sunrise06:5112:51
Sunset18:5400:54
Evening civil twilight19:2101:21

Current date and time
Zulu (UTC)  25-Sep-2022 00:19:14
Local (UTC-6)  24-Sep-2022 18:19:14
 
METAR
KBJC 
16nm N 
242348Z 04007KT 10SM SKC 26/M03 A3021
KAPA 
18nm E 
242353Z 03004KT 10SM CLR 25/M04 A3021 RMK AO2 SLP179 T02501044 10267 20228 53002
KBKF 
22nm E 
242358Z 06010KT 10SM CLR 25/M03 A3021 RMK AO2A SLP171 T02521033 10277 20234 53003
KEIK 
22nm N 
242355Z AUTO 09006KT 10SM CLR 27/M05 A3017 RMK AO2 T02651050 10279 20240 PWINO
K1V5 
22nm N 
AWOS 118.825 303-541-9540
No observation available
KBDU 
22nm N 
242355Z AUTO 01003KT 10SM CLR 25/00 A3018 RMK AO2
K0CO 
26nm W 
242355Z AUTO 30021G25KT 10SM CLR 06/M07 A3066 RMK AO2
KDEN 
28nm E 
242353Z 04009KT 10SM CLR 26/M04 A3018 RMK AO2 SLP156 T02561039 10278 20244 53002
KLMO 
30nm N 
242355Z AUTO 00000KT 10SM CLR 27/00 A3018 RMK AO2 T02691002 10287 20243
TAF
KBJC 
16nm N 
241740Z 2418/2518 VRB03KT P6SM SKC FM241900 07007KT P6SM SKC FM250500 35005KT P6SM SKC
KAPA 
18nm E 
241740Z 2418/2518 VRB05KT P6SM FEW100 FEW220 FM242200 08006KT P6SM FEW220 FM250700 01006KT P6SM FEW220 FM251100 19006KT P6SM SKC FM251700 04006KT P6SM SKC
NOTAMs
Click for the latest NOTAMs
NOTAMs are issued by the DoD/FAA and will open in a separate window not controlled by AirNav.

 

 
 

Would you like to see your business listed on this page?

 If your business provides an interesting product or service to pilots, flight crews, aircraft, or users of the Mount Morrison Heliport, you should consider listing it here.  To start the listing process, click on the button below
 
Add a business
 

Other Pages about Mount Morrison Heliport

Update a link
 
Copyright © AirNav, LLC. All rights reserved. Privacy Policy  Contact